Time;durP1;ratioP1;P1;durP2;ratioP2;P2;SDS_P1;SDS_P2;PMS_P1;PMS_P2;Temp;Humidity;BMP_temperature;BMP_pressure;BME280_temperature;BME280_humidity;BME280_pressure;Samples;Min_cycle;Max_cycle;Signal;HPM_P1;HPM_P2
2021/09/11 00:02:25;;;;;;;3.83;3.63;;;;;;;25.10;46.80;98469.97;5033870;28;20245;-56
2021/09/11 00:04:52;;;;;;;3.60;3.40;;;;;;;25.12;46.92;98477.78;5034877;28;20226;-55
2021/09/11 00:07:19;;;;;;;3.90;3.60;;;;;;;25.15;46.76;98475.50;5035228;28;20190;-57
2021/09/11 00:09:45;;;;;;;3.80;3.57;;;;;;;25.16;46.56;98473.66;5034892;28;20293;-57
2021/09/11 00:12:12;;;;;;;4.10;3.80;;;;;;;25.15;46.83;98470.16;5035161;28;20588;-57
2021/09/11 00:14:38;;;;;;;4.10;3.87;;;;;;;25.15;46.65;98464.81;5034765;28;20656;-57
2021/09/11 00:17:05;;;;;;;3.80;3.60;;;;;;;25.14;46.84;98468.50;5034758;28;20604;-57
2021/09/11 00:19:32;;;;;;;3.37;3.17;;;;;;;24.98;47.24;98468.91;5034612;28;20214;-56
2021/09/11 00:21:59;;;;;;;3.60;3.40;;;;;;;24.95;47.09;98473.63;5035190;28;20186;-56
2021/09/11 00:24:25;;;;;;;3.50;3.30;;;;;;;24.94;47.32;98469.31;5033281;28;20214;-57
2021/09/11 00:26:52;;;;;;;3.77;3.57;;;;;;;24.95;47.06;98470.16;5034581;28;20269;-57
2021/09/11 00:29:19;;;;;;;3.57;3.37;;;;;;;24.98;47.04;98474.25;5033290;28;20256;-56
2021/09/11 00:31:45;;;;;;;3.57;3.37;;;;;;;24.94;47.46;98472.00;5034469;28;20257;-57
2021/09/11 00:34:12;;;;;;;3.40;3.20;;;;;;;24.89;47.20;98471.78;5033410;28;20562;-57
2021/09/11 00:36:38;;;;;;;3.90;3.60;;;;;;;24.90;47.22;98475.25;5034622;28;20198;-57
2021/09/11 00:39:05;;;;;;;3.73;3.53;;;;;;;24.88;47.38;98474.66;5034482;28;20206;-57
2021/09/11 00:41:31;;;;;;;3.90;3.70;;;;;;;24.85;47.37;98475.91;5033276;28;20186;-56
2021/09/11 00:43:58;;;;;;;3.73;3.53;;;;;;;24.86;47.33;98471.38;5034125;28;20197;-55
2021/09/11 00:46:24;;;;;;;3.50;3.30;;;;;;;24.86;47.49;98468.69;5033191;28;20202;-55
2021/09/11 00:48:51;;;;;;;3.90;3.70;;;;;;;24.85;47.10;98470.56;5034118;28;20218;-57
2021/09/11 00:51:18;;;;;;;3.63;3.43;;;;;;;24.85;47.26;98470.56;5034379;28;20190;-57
2021/09/11 00:53:45;;;;;;;3.70;3.50;;;;;;;24.85;47.39;98475.06;5034052;28;20197;-57
2021/09/11 00:56:12;;;;;;;3.70;3.50;;;;;;;24.83;47.21;98471.78;5034013;28;20190;-57
2021/09/11 00:58:39;;;;;;;3.60;3.40;;;;;;;24.86;47.44;98471.38;5033994;28;20210;-57
2021/09/11 01:01:07;;;;;;;3.60;3.40;;;;;;;24.83;47.32;98471.78;5033913;28;20193;-56
2021/09/11 01:03:34;;;;;;;3.63;3.43;;;;;;;24.83;47.33;98472.56;5034167;28;20273;-57
2021/09/11 01:06:01;;;;;;;3.50;3.30;;;;;;;24.83;47.45;98472.56;5033778;28;20220;-56
2021/09/11 01:08:28;;;;;;;3.47;3.27;;;;;;;24.85;47.36;98470.56;5033792;28;20210;-57
2021/09/11 01:10:54;;;;;;;3.23;3.03;;;;;;;24.87;47.19;98463.16;5033750;28;20256;-57
2021/09/11 01:13:21;;;;;;;3.60;3.40;;;;;;;24.84;47.23;98460.88;5033720;28;20189;-55
2021/09/11 01:15:47;;;;;;;3.80;3.60;;;;;;;24.83;47.30;98467.25;5032764;28;20232;-57
2021/09/11 01:18:14;;;;;;;3.13;2.93;;;;;;;24.85;47.39;98465.22;5034048;28;20648;-57
2021/09/11 01:20:40;;;;;;;3.80;3.60;;;;;;;24.83;47.33;98467.25;5033581;28;20657;-56
2021/09/11 01:23:07;;;;;;;3.57;3.37;;;;;;;24.80;47.16;98462.31;5033547;28;20240;-56
2021/09/11 01:25:34;;;;;;;3.70;3.50;;;;;;;24.80;47.24;98457.81;5033731;28;20615;-57
2021/09/11 01:28:00;;;;;;;3.57;3.37;;;;;;;24.81;47.48;98461.28;5033441;28;20256;-57
2021/09/11 01:30:27;;;;;;;3.30;3.10;;;;;;;24.83;47.29;98455.75;5033465;28;20244;-56
2021/09/11 01:32:53;;;;;;;3.70;3.50;;;;;;;24.82;47.44;98454.13;5033418;28;20236;-57
2021/09/11 01:35:20;;;;;;;3.77;3.57;;;;;;;24.84;47.28;98458.22;5033413;28;20232;-57
2021/09/11 01:37:46;;;;;;;3.63;3.43;;;;;;;24.83;47.28;98456.56;5033357;28;20186;-57
2021/09/11 01:40:14;;;;;;;3.73;3.53;;;;;;;24.84;47.57;98458.22;5033265;28;20213;-57
2021/09/11 01:42:41;;;;;;;3.40;3.20;;;;;;;24.87;47.07;98457.00;5033585;28;20202;-57
2021/09/11 01:45:11;;;;;;;3.63;3.43;;;;;;;24.86;47.21;98455.34;5033186;28;20264;-57
2021/09/11 01:47:39;;;;;;;3.63;3.43;;;;;;;24.86;47.26;98453.50;5031991;28;20194;-56
2021/09/11 01:50:08;;;;;;;3.50;3.30;;;;;;;24.88;47.09;98459.47;5033400;28;20247;-57
2021/09/11 01:52:35;;;;;;;3.40;3.20;;;;;;;24.88;47.10;98461.31;5033321;28;20657;-57
2021/09/11 01:55:04;;;;;;;3.40;3.20;;;;;;;24.83;47.24;98456.56;5033385;28;20232;-57
2021/09/11 01:57:30;;;;;;;3.40;3.20;;;;;;;24.83;47.29;98453.91;5033415;28;20656;-57
2021/09/11 01:59:57;;;;;;;3.63;3.43;;;;;;;24.82;47.16;98449.59;5033633;28;20550;-57
2021/09/11 02:02:23;;;;;;;3.47;3.27;;;;;;;24.81;47.18;98453.28;5033139;28;20190;-57
2021/09/11 02:04:50;;;;;;;3.60;3.40;;;;;;;24.81;47.27;98453.28;5033024;28;20221;-57
2021/09/11 02:07:16;;;;;;;3.53;3.33;;;;;;;24.84;47.21;98458.22;5033053;28;20190;-57
2021/09/11 02:09:43;;;;;;;3.60;3.40;;;;;;;24.86;47.10;98456.19;5033017;28;20627;-57
2021/09/11 02:12:09;;;;;;;3.67;3.47;;;;;;;24.83;47.09;98459.22;5033028;28;20186;-56
2021/09/11 02:14:36;;;;;;;3.40;3.20;;;;;;;24.82;47.33;98454.13;5031840;28;20201;-57
2021/09/11 02:17:04;;;;;;;3.53;3.33;;;;;;;24.80;47.30;98457.81;5032996;28;20197;-57
2021/09/11 02:19:32;;;;;;;3.40;3.20;;;;;;;24.82;47.22;98454.91;5031618;28;20225;-57
2021/09/11 02:22:04;;;;;;;3.50;3.30;;;;;;;24.81;47.29;98455.94;5033236;28;20185;-56
2021/09/11 02:24:30;;;;;;;3.50;3.30;;;;;;;24.83;47.32;98453.09;5032860;28;20182;-57
2021/09/11 02:27:01;;;;;;;3.20;3.00;;;;;;;24.82;47.09;98457.59;5033393;28;20542;-57
2021/09/11 02:29:28;;;;;;;3.40;3.20;;;;;;;24.82;47.05;98454.13;5032935;28;20218;-57
2021/09/11 02:31:54;;;;;;;3.73;3.53;;;;;;;24.82;47.38;98460.25;5032886;28;20190;-56
2021/09/11 02:34:21;;;;;;;3.50;3.30;;;;;;;24.81;47.17;98463.97;5031626;28;20186;-57
2021/09/11 02:36:48;;;;;;;3.07;2.93;;;;;;;24.78;47.38;98461.69;5033320;28;20190;-56
2021/09/11 02:39:14;;;;;;;3.17;2.97;;;;;;;24.79;47.20;98463.34;5031586;28;20214;-57
2021/09/11 02:41:41;;;;;;;3.50;3.30;;;;;;;24.77;47.13;98463.56;5032786;28;20194;-57
2021/09/11 02:44:08;;;;;;;3.37;3.17;;;;;;;24.78;47.06;98467.88;5031470;28;20254;-57
2021/09/11 02:46:34;;;;;;;3.43;3.23;;;;;;;24.75;47.37;98470.09;5032707;28;20217;-57
2021/09/11 02:49:01;;;;;;;3.30;3.10;;;;;;;24.76;47.19;98472.56;5032696;28;20209;-57
2021/09/11 02:51:29;;;;;;;3.30;3.10;;;;;;;24.80;47.33;98473.00;5031632;28;20186;-57
2021/09/11 02:53:55;;;;;;;3.37;3.17;;;;;;;24.79;47.30;98468.69;5032629;28;20657;-57
2021/09/11 02:56:22;;;;;;;3.30;3.10;;;;;;;24.71;47.49;98468.84;5032617;28;20186;-57
2021/09/11 02:58:48;;;;;;;3.70;3.40;;;;;;;24.68;47.47;98470.06;5031379;28;20221;-57
2021/09/11 03:01:15;;;;;;;3.10;2.90;;;;;;;24.65;47.41;98468.59;5031330;28;20201;-55
2021/09/11 03:03:42;;;;;;;3.27;3.07;;;;;;;24.65;47.63;98465.13;5031421;28;20190;-57
2021/09/11 03:06:09;;;;;;;2.90;2.80;;;;;;;24.65;47.38;98468.59;5034205;28;20202;-57
2021/09/11 03:08:35;;;;;;;3.23;3.03;;;;;;;24.65;47.40;98465.94;5037037;28;20214;-57
2021/09/11 03:11:02;;;;;;;3.30;3.10;;;;;;;24.62;47.65;98463.69;5036049;28;20193;-57
2021/09/11 03:13:28;;;;;;;3.27;3.07;;;;;;;24.63;47.62;98462.66;5035962;28;20194;-57
2021/09/11 03:15:57;;;;;;;3.40;3.20;;;;;;;24.64;47.53;98461.63;5035928;28;20190;-57
2021/09/11 03:18:24;;;;;;;3.23;3.03;;;;;;;24.62;47.63;98465.53;5036083;28;20221;-57
2021/09/11 03:20:51;;;;;;;3.30;3.10;;;;;;;24.62;47.57;98466.34;5035784;28;20190;-57
2021/09/11 03:23:18;;;;;;;3.07;2.87;;;;;;;24.62;47.50;98461.00;5035813;28;20194;-55
2021/09/11 03:25:44;;;;;;;3.27;3.07;;;;;;;24.64;47.55;98458.16;5035951;28;20607;-57
2021/09/11 03:28:11;;;;;;;3.40;3.17;;;;;;;24.65;47.56;98460.59;5035722;28;20198;-57
2021/09/11 03:30:37;;;;;;;3.30;3.10;;;;;;;24.67;47.23;98460.41;5035931;28;20189;-56
2021/09/11 03:33:05;;;;;;;3.13;2.93;;;;;;;24.67;47.41;98465.75;5035612;28;20190;-56
2021/09/11 03:35:31;;;;;;;2.93;2.77;;;;;;;24.63;47.41;98462.66;5035570;28;20182;-57
2021/09/11 03:37:58;;;;;;;3.17;2.97;;;;;;;24.61;47.46;98459.38;5035470;28;20553;-57
2021/09/11 03:40:24;;;;;;;3.33;3.13;;;;;;;24.62;47.38;98462.88;5035463;28;20186;-57
2021/09/11 03:42:51;;;;;;;3.20;3.00;;;;;;;24.61;47.52;98470.03;5035700;28;20186;-57
2021/09/11 03:45:17;;;;;;;3.57;3.37;;;;;;;24.62;47.65;98461.00;5035304;28;20255;-57
2021/09/11 03:47:44;;;;;;;3.40;3.20;;;;;;;24.58;47.52;98467.78;5035348;28;20190;-57
2021/09/11 03:50:11;;;;;;;3.00;2.80;;;;;;;24.58;47.74;98458.94;5035209;28;20217;-57
2021/09/11 03:52:37;;;;;;;3.40;3.20;;;;;;;24.58;47.48;98458.94;5035275;28;20193;-57
2021/09/11 03:55:05;;;;;;;3.20;3.00;;;;;;;24.56;47.82;98461.81;5035210;28;20182;-57
2021/09/11 03:57:32;;;;;;;2.90;2.77;;;;;;;24.57;47.68;98463.47;5035523;28;20193;-57
2021/09/11 03:59:59;;;;;;;3.27;3.07;;;;;;;24.59;47.67;98458.75;5035150;28;20210;-57
2021/09/11 04:02:26;;;;;;;3.20;3.00;;;;;;;24.63;47.34;98461.84;5035424;28;20205;-57
2021/09/11 04:04:52;;;;;;;3.50;3.30;;;;;;;24.64;47.32;98466.97;5035177;28;20244;-56
2021/09/11 04:07:19;;;;;;;3.13;2.93;;;;;;;24.64;47.35;98469.63;5035061;28;20248;-57
2021/09/11 04:09:45;;;;;;;3.10;2.90;;;;;;;24.62;47.48;98471.69;5034964;28;20225;-57
2021/09/11 04:12:12;;;;;;;3.23;3.03;;;;;;;24.62;47.38;98469.00;5034902;28;20190;-57
2021/09/11 04:14:38;;;;;;;3.17;2.97;;;;;;;24.62;47.66;98471.69;5034895;28;20189;-57
2021/09/11 04:17:05;;;;;;;3.40;3.20;;;;;;;24.60;47.46;98468.41;5035122;28;20228;-57
2021/09/11 04:19:31;;;;;;;3.13;2.93;;;;;;;24.60;47.39;98468.41;5034952;28;20210;-57
2021/09/11 04:21:58;;;;;;;3.30;3.10;;;;;;;24.65;47.44;98467.81;5035280;28;20190;-57
2021/09/11 04:24:24;;;;;;;3.17;2.97;;;;;;;24.66;47.15;98472.91;5034938;28;20565;-57
2021/09/11 04:26:52;;;;;;;3.10;2.90;;;;;;;24.64;47.41;98464.28;5034565;28;20217;-57
2021/09/11 04:29:18;;;;;;;2.93;2.80;;;;;;;24.62;47.48;98463.69;5034418;28;20225;-57
2021/09/11 04:31:45;;;;;;;3.30;3.10;;;;;;;24.64;47.59;98458.16;5034788;28;20260;-57
2021/09/11 04:34:11;;;;;;;2.63;2.53;;;;;;;24.62;47.40;98458.34;5034785;28;20198;-57
2021/09/11 04:36:38;;;;;;;3.03;2.83;;;;;;;24.60;47.29;98465.72;5034696;28;20182;-57
2021/09/11 04:39:04;;;;;;;3.10;2.90;;;;;;;24.59;47.56;98456.09;5034390;28;20213;-57
2021/09/11 04:41:31;;;;;;;3.20;3.00;;;;;;;24.60;47.35;98454.22;5034362;28;20185;-57
2021/09/11 04:43:57;;;;;;;3.30;3.10;;;;;;;24.62;47.49;98458.34;5034412;28;20196;-57
2021/09/11 04:46:24;;;;;;;3.20;3.00;;;;;;;24.64;47.33;98460.81;5034213;28;20216;-57
2021/09/11 04:48:50;;;;;;;3.13;2.93;;;;;;;24.61;47.56;98461.22;5034193;28;20206;-57
2021/09/11 04:51:17;;;;;;;3.10;2.90;;;;;;;24.60;47.28;98457.72;5034159;28;20624;-57
2021/09/11 04:53:43;;;;;;;3.07;2.87;;;;;;;24.58;47.46;98457.09;5034424;28;20201;-57
2021/09/11 04:56:10;;;;;;;3.20;3.00;;;;;;;24.64;47.12;98456.28;5034025;28;20236;-57
2021/09/11 04:58:36;;;;;;;2.97;2.77;;;;;;;24.67;47.18;98468.41;5033924;28;20206;-57
2021/09/11 05:01:03;;;;;;;3.20;3.00;;;;;;;24.65;47.20;98460.59;5033979;28;20190;-57
2021/09/11 05:03:29;;;;;;;2.90;2.80;;;;;;;24.65;47.30;98465.94;5034203;28;20193;-57
2021/09/11 05:05:56;;;;;;;3.10;2.90;;;;;;;24.62;47.43;98466.34;5033901;28;20289;-57
2021/09/11 05:08:23;;;;;;;3.13;2.93;;;;;;;24.60;47.37;98463.06;5034000;28;20232;-56
2021/09/11 05:10:49;;;;;;;3.40;3.20;;;;;;;24.59;47.42;98469.41;5034338;28;20190;-57
2021/09/11 05:13:16;;;;;;;2.70;2.60;;;;;;;24.58;47.46;98466.94;5033595;28;20190;-56
2021/09/11 05:15:42;;;;;;;3.03;2.83;;;;;;;24.58;47.52;98469.59;5033620;28;20233;-57
2021/09/11 05:18:09;;;;;;;3.07;2.87;;;;;;;24.59;47.44;98472.09;5033846;28;20197;-57
2021/09/11 05:20:35;;;;;;;3.07;2.87;;;;;;;24.58;47.23;98475.78;5032505;28;20194;-57
2021/09/11 05:23:02;;;;;;;3.30;3.10;;;;;;;24.59;47.52;98473.91;5033578;28;20190;-56
2021/09/11 05:25:28;;;;;;;3.00;2.80;;;;;;;24.59;47.58;98479.25;5033539;28;20198;-56
2021/09/11 05:27:55;;;;;;;2.87;2.70;;;;;;;24.59;47.45;98473.91;5032950;28;20213;-57
2021/09/11 05:30:21;;;;;;;2.80;2.70;;;;;;;24.61;47.26;98477.25;5033681;28;20189;-57
2021/09/11 05:32:48;;;;;;;3.10;2.90;;;;;;;24.61;47.38;98474.56;5033407;28;20190;-57
2021/09/11 05:35:15;;;;;;;3.10;2.90;;;;;;;24.61;47.43;98475.38;5033712;28;20657;-57
2021/09/11 05:37:41;;;;;;;3.20;3.00;;;;;;;24.61;47.32;98475.38;5033401;28;20194;-57
2021/09/11 05:40:08;;;;;;;3.10;2.90;;;;;;;24.60;47.23;98472.91;5033270;28;20214;-57
2021/09/11 05:42:36;;;;;;;3.00;2.80;;;;;;;24.59;47.34;98481.94;5033317;28;20190;-57
2021/09/11 05:45:05;;;;;;;2.93;2.73;;;;;;;24.59;47.29;98487.25;5033594;28;20277;-57
2021/09/11 05:47:33;;;;;;;2.87;2.73;;;;;;;24.59;47.52;98490.75;5033444;28;20210;-55
2021/09/11 05:50:00;;;;;;;3.20;3.00;;;;;;;24.58;47.52;98490.94;5033138;28;20206;-57
2021/09/11 05:52:26;;;;;;;2.80;2.67;;;;;;;24.56;47.39;98491.16;5034012;28;20194;-57
2021/09/11 05:54:53;;;;;;;2.90;2.80;;;;;;;24.59;47.30;98500.59;5033169;28;20194;-57
2021/09/11 05:57:23;;;;;;;2.80;2.70;;;;;;;24.59;47.16;98493.44;5033454;28;20181;-57
2021/09/11 05:59:50;;;;;;;3.10;2.90;;;;;;;24.59;47.35;98497.94;5032058;28;20244;-57
2021/09/11 06:02:16;;;;;;;3.20;3.00;;;;;;;24.60;47.28;98504.91;5033080;28;20197;-57
2021/09/11 06:04:43;;;;;;;3.10;2.90;;;;;;;24.61;47.40;98509.25;5033046;28;20553;-57
2021/09/11 06:07:10;;;;;;;3.10;2.90;;;;;;;24.62;47.04;98497.56;5033261;28;20608;-57
2021/09/11 06:09:36;;;;;;;3.23;3.03;;;;;;;24.65;47.24;98503.28;5032956;28;20217;-57
2021/09/11 06:12:05;;;;;;;2.93;2.73;;;;;;;24.65;47.11;98499.81;5033088;28;20247;-57
2021/09/11 06:14:31;;;;;;;2.73;2.63;;;;;;;24.62;47.04;98501.03;5033030;28;20182;-57
2021/09/11 06:16:58;;;;;;;3.00;2.80;;;;;;;24.62;47.36;98503.69;5033003;28;20190;-57
2021/09/11 06:19:24;;;;;;;2.90;2.70;;;;;;;24.65;47.11;98502.50;5032923;28;20212;-57
2021/09/11 06:21:51;;;;;;;3.20;3.00;;;;;;;24.66;47.20;98504.13;5033503;28;20248;-57
2021/09/11 06:24:17;;;;;;;3.10;2.90;;;;;;;24.65;47.27;98503.28;5033495;28;20189;-55
2021/09/11 06:26:44;;;;;;;3.03;2.83;;;;;;;24.65;47.17;98505.16;5033084;28;20213;-56
2021/09/11 06:29:10;;;;;;;2.90;2.70;;;;;;;24.62;47.16;98505.56;5032827;28;20224;-57
2021/09/11 06:31:37;;;;;;;2.80;2.60;;;;;;;24.61;47.42;98501.25;5033109;28;20190;-57
2021/09/11 06:34:03;;;;;;;3.17;2.97;;;;;;;24.62;47.30;98509.03;5032917;28;20190;-57
2021/09/11 06:36:30;;;;;;;3.23;3.03;;;;;;;24.60;47.29;98502.25;5031665;28;20539;-57
2021/09/11 06:38:56;;;;;;;3.20;2.90;;;;;;;24.62;47.36;98502.91;5032773;28;20766;-57
2021/09/11 06:41:22;;;;;;;3.27;3.07;;;;;;;24.62;47.21;98509.03;5036573;28;20190;-57
2021/09/11 06:43:49;;;;;;;2.87;2.77;;;;;;;24.63;47.26;98510.69;5036561;28;20201;-57
2021/09/11 06:46:15;;;;;;;2.70;2.50;;;;;;;24.64;47.32;98509.66;5036463;28;20209;-57
2021/09/11 06:48:42;;;;;;;3.10;2.90;;;;;;;24.67;47.42;98509.25;5035182;28;20689;-57
2021/09/11 06:51:12;;;;;;;3.40;3.20;;;;;;;24.72;47.27;98513.19;5036507;28;20197;-57
2021/09/11 06:53:39;;;;;;;3.40;3.20;;;;;;;24.73;47.16;98510.28;5036670;28;20190;-57
2021/09/11 06:56:06;;;;;;;3.23;3.03;;;;;;;24.76;47.18;98509.91;5036354;28;20687;-57
2021/09/11 06:58:32;;;;;;;3.10;2.90;;;;;;;24.77;47.03;98506.25;5036454;28;20581;-55
2021/09/11 07:01:00;;;;;;;2.90;2.70;;;;;;;24.78;47.35;98507.91;5035307;28;20526;-57
2021/09/11 07:03:27;;;;;;;3.03;2.83;;;;;;;24.80;47.34;98510.34;5036422;28;20232;-56
2021/09/11 07:05:54;;;;;;;4.10;3.70;;;;;;;24.77;47.36;98505.41;5035261;28;20667;-57
2021/09/11 07:08:20;;;;;;;7.27;6.57;;;;;;;24.74;47.74;98503.13;5036174;28;20206;-56
2021/09/11 07:10:47;;;;;;;5.77;5.30;;;;;;;24.69;48.18;98502.88;5036703;28;20182;-55
2021/09/11 07:13:13;;;;;;;5.80;5.40;;;;;;;24.65;48.18;98505.16;5036335;28;20197;-56
2021/09/11 07:15:40;;;;;;;6.30;5.80;;;;;;;24.62;48.32;98511.69;5035969;28;20221;-55
2021/09/11 07:18:06;;;;;;;6.37;5.87;;;;;;;24.64;48.58;98501.66;5034703;28;20594;-54
2021/09/11 07:20:33;;;;;;;7.00;6.30;;;;;;;24.67;48.37;98509.25;5035999;28;20221;-56
2021/09/11 07:23:00;;;;;;;7.20;6.50;;;;;;;24.67;48.63;98514.59;5036167;28;20208;-56
2021/09/11 07:25:27;;;;;;;6.93;6.33;;;;;;;24.69;48.52;98510.88;5036041;28;20186;-56
2021/09/11 07:27:53;;;;;;;7.97;7.20;;;;;;;24.69;48.73;98516.22;5035591;28;20641;-55
2021/09/11 07:30:20;;;;;;;8.50;7.77;;;;;;;24.67;48.74;98517.25;5035684;28;20214;-56
2021/09/11 07:32:46;;;;;;;8.10;7.43;;;;;;;24.69;48.72;98518.91;5035737;28;20193;-56
2021/09/11 07:35:14;;;;;;;8.27;7.57;;;;;;;24.67;48.95;98522.59;5035659;28;20601;-56
2021/09/11 07:37:40;;;;;;;7.20;6.60;;;;;;;24.65;49.03;98516.63;5035675;28;20189;-56
2021/09/11 07:40:08;;;;;;;7.77;7.17;;;;;;;24.65;48.85;98513.97;5035561;28;20217;-56
2021/09/11 07:42:35;;;;;;;9.50;8.60;;;;;;;24.69;49.00;98518.91;5035568;28;20552;-56
2021/09/11 07:45:02;;;;;;;8.97;8.07;;;;;;;24.70;48.98;98523.25;5035455;28;20205;-55
2021/09/11 07:47:28;;;;;;;8.83;8.13;;;;;;;24.67;49.26;98530.59;5035644;28;20216;-55
2021/09/11 07:49:55;;;;;;;7.37;6.70;;;;;;;24.69;49.02;98532.25;5035757;28;20610;-56
2021/09/11 07:52:21;;;;;;;8.97;8.17;;;;;;;24.69;48.86;98532.25;5035086;28;20182;-56
2021/09/11 07:54:48;;;;;;;8.83;8.07;;;;;;;24.72;48.88;98534.53;5035558;28;20530;-54
2021/09/11 07:57:14;;;;;;;8.30;7.50;;;;;;;24.71;49.06;98539.03;5035306;28;20182;-54
2021/09/11 07:59:41;;;;;;;8.80;8.00;;;;;;;24.72;48.92;98542.53;5035133;28;20209;-56
2021/09/11 08:02:07;;;;;;;6.93;6.37;;;;;;;24.69;48.98;98540.25;5035734;28;20189;-54
2021/09/11 08:04:34;;;;;;;8.33;7.67;;;;;;;24.69;49.16;98545.59;5035119;28;20190;-54
2021/09/11 08:07:00;;;;;;;8.87;8.17;;;;;;;24.67;49.04;98546.59;5035031;28;20672;-53
2021/09/11 08:09:27;;;;;;;8.80;8.03;;;;;;;24.65;49.29;98545.97;5034899;28;20214;-53
2021/09/11 08:11:53;;;;;;;9.27;8.37;;;;;;;24.69;49.15;98553.59;5034916;28;20193;-56
2021/09/11 08:14:20;;;;;;;8.17;7.47;;;;;;;24.69;49.16;98553.59;5035069;28;20547;-57
2021/09/11 08:16:46;;;;;;;7.23;6.63;;;;;;;24.69;48.97;98557.09;5035103;28;20186;-57
2021/09/11 08:19:13;;;;;;;7.90;7.20;;;;;;;24.71;48.96;98559.56;5034615;28;20208;-55
2021/09/11 08:21:40;;;;;;;7.53;6.93;;;;;;;24.72;48.88;98555.88;5033432;28;20202;-57
2021/09/11 08:24:06;;;;;;;6.83;6.33;;;;;;;24.73;48.69;98560.19;5033681;28;20649;-57
2021/09/11 08:26:34;;;;;;;7.20;6.50;;;;;;;24.72;48.55;98558.56;5034473;28;20213;-53
2021/09/11 08:29:00;;;;;;;7.33;6.73;;;;;;;24.71;48.69;98564.91;5034407;28;20627;-58
2021/09/11 08:31:27;;;;;;;7.13;6.53;;;;;;;24.69;48.76;98562.44;5034554;28;20190;-57
2021/09/11 08:33:54;;;;;;;7.10;6.50;;;;;;;24.70;48.77;98563.25;5033235;28;20742;-57
2021/09/11 08:36:22;;;;;;;7.30;6.70;;;;;;;24.73;48.76;98568.19;5034452;28;20266;-57
2021/09/11 08:38:49;;;;;;;7.27;6.70;;;;;;;24.77;48.63;98564.13;5034629;28;20250;-58
2021/09/11 08:41:15;;;;;;;7.07;6.47;;;;;;;24.77;48.39;98580.16;5034810;28;20197;-57
2021/09/11 08:43:42;;;;;;;7.30;6.70;;;;;;;24.80;48.54;98569.06;5034420;28;20272;-57
2021/09/11 08:46:09;;;;;;;7.27;6.67;;;;;;;24.81;48.44;98565.38;5034149;28;20193;-58
2021/09/11 08:48:35;;;;;;;7.10;6.30;;;;;;;24.83;48.49;98578.53;5034210;28;20220;-57
2021/09/11 08:51:02;;;;;;;6.40;5.80;;;;;;;24.83;48.26;98575.84;5034140;28;20260;-58
2021/09/11 08:53:29;;;;;;;6.90;6.30;;;;;;;24.84;48.37;98575.63;5034163;28;20687;-57
2021/09/11 08:55:56;;;;;;;7.00;6.40;;;;;;;24.86;48.17;98575.44;5034338;28;20619;-57
2021/09/11 08:58:22;;;;;;;7.10;6.50;;;;;;;24.86;48.03;98573.63;5034157;28;20206;-57
2021/09/11 09:00:51;;;;;;;6.83;6.17;;;;;;;24.83;48.38;98574.00;5034009;28;20190;-57
2021/09/11 09:03:30;;;;;;;7.13;6.53;;;;;;;24.82;48.28;98575.03;5034233;28;20273;-57
2021/09/11 09:06:15;;;;;;;7.20;6.60;;;;;;;24.83;48.60;98571.31;5032833;28;20178;-57
2021/09/11 09:08:43;;;;;;;6.60;6.10;;;;;;;24.80;48.37;98572.56;5034165;28;20229;-57
2021/09/11 09:11:20;;;;;;;6.30;5.80;;;;;;;24.79;48.25;98570.94;5033743;28;20657;-58
2021/09/11 09:13:53;;;;;;;5.80;5.40;;;;;;;24.79;48.31;98573.59;5033760;28;20193;-58
2021/09/11 09:16:22;;;;;;;6.03;5.53;;;;;;;24.78;48.35;98571.94;5034238;28;20550;-57
2021/09/11 09:18:48;;;;;;;6.63;6.13;;;;;;;24.76;48.53;98579.31;5033784;28;20210;-57
2021/09/11 09:21:28;;;;;;;6.23;5.80;;;;;;;24.77;48.40;98578.31;5033604;28;20186;-58
2021/09/11 09:24:01;;;;;;;6.10;5.60;;;;;;;24.75;48.42;98572.28;5033826;28;20632;-58
2021/09/11 09:26:28;;;;;;;6.10;5.60;;;;;;;24.75;48.47;98566.16;5034025;28;20209;-57
2021/09/11 09:29:07;;;;;;;6.03;5.57;;;;;;;24.78;48.26;98566.63;5033322;28;20225;-57
2021/09/11 09:31:34;;;;;;;6.40;5.80;;;;;;;24.77;48.46;98569.47;5032289;28;20209;-56
2021/09/11 09:34:03;;;;;;;6.10;5.60;;;;;;;24.78;48.44;98566.63;5033625;28;20232;-58
2021/09/11 09:36:35;;;;;;;5.87;5.47;;;;;;;24.77;48.39;98575.66;5033395;28;20664;-57
2021/09/11 09:39:05;;;;;;;5.97;5.47;;;;;;;24.80;48.35;98574.41;5033508;28;20213;-58
2021/09/11 09:41:50;;;;;;;6.43;5.93;;;;;;;24.80;48.27;98575.25;5033924;28;20194;-56
2021/09/11 09:44:19;;;;;;;5.63;5.23;;;;;;;24.81;48.16;98570.72;5033900;28;20174;-57
2021/09/11 09:46:48;;;;;;;5.83;5.33;;;;;;;24.82;48.20;98571.53;5033431;28;20205;-58
2021/09/11 09:49:23;;;;;;;5.90;5.50;;;;;;;24.82;48.36;98572.34;5033394;28;20255;-57
2021/09/11 09:51:51;;;;;;;5.77;5.30;;;;;;;24.83;48.24;98576.66;5032033;28;20190;-58
2021/09/11 09:54:19;;;;;;;5.37;4.97;;;;;;;24.82;48.24;98572.34;5033147;28;20198;-57
2021/09/11 09:56:46;;;;;;;5.80;5.40;;;;;;;24.84;48.30;98575.63;5033160;28;20190;-58
2021/09/11 09:59:12;;;;;;;5.60;5.10;;;;;;;24.87;48.30;98572.59;5033044;28;20213;-57
2021/09/11 10:01:39;;;;;;;5.80;5.40;;;;;;;24.84;48.06;98572.97;5033371;28;20201;-57
2021/09/11 10:04:15;;;;;;;5.77;5.37;;;;;;;24.87;48.24;98569.94;5033156;28;20190;-57
2021/09/11 10:06:44;;;;;;;6.43;5.93;;;;;;;24.87;48.19;98572.59;5033620;28;20227;-58
2021/09/11 10:09:14;;;;;;;5.93;5.43;;;;;;;24.90;47.97;98574.88;5032957;28;20213;-58
2021/09/11 10:11:49;;;;;;;5.70;5.30;;;;;;;24.89;48.10;98567.88;5033037;28;20199;-58
2021/09/11 10:14:19;;;;;;;5.43;5.00;;;;;;;24.89;48.10;98567.88;5033597;28;20185;-58
2021/09/11 10:17:05;;;;;;;5.90;5.43;;;;;;;24.91;47.94;98570.31;5037863;28;20240;-58
2021/09/11 10:19:36;;;;;;;6.00;5.50;;;;;;;24.91;47.94;98565.81;5037059;28;20260;-58
2021/09/11 10:22:15;;;;;;;5.70;5.20;;;;;;;24.95;47.94;98561.72;5036999;28;20182;-58
2021/09/11 10:24:46;;;;;;;5.90;5.50;;;;;;;24.94;47.80;98554.75;5036966;28;20679;-58
2021/09/11 10:27:22;;;;;;;5.33;4.93;;;;;;;24.97;48.12;98560.69;5037158;28;20209;-58
2021/09/11 10:29:54;;;;;;;6.40;5.90;;;;;;;24.95;48.24;98555.56;5036943;28;20770;-57
2021/09/11 10:32:26;;;;;;;6.60;6.10;;;;;;;24.94;48.89;98546.72;5036840;28;20257;-57
2021/09/11 10:35:23;;;;;;;6.40;5.90;;;;;;;24.93;49.02;98546.94;5036986;28;20614;-58
2021/09/11 10:37:54;;;;;;;7.47;6.77;;;;;;;24.98;49.06;98543.66;5037291;28;20174;-58
2021/09/11 10:40:32;;;;;;;66.67;45.70;;;;;;;25.04;48.81;98548.22;5036624;28;20209;-57
2021/09/11 10:46:01;;;;;;;521.33;361.70;;;;;;;25.06;48.68;98557.66;5036546;28;20191;-56
2021/09/11 10:48:36;;;;;;;336.70;231.87;;;;;;;25.06;48.94;98554.16;5036525;28;20252;-58
2021/09/11 10:51:32;;;;;;;380.60;263.53;;;;;;;25.07;48.93;98547.81;5036639;28;20680;-58
2021/09/11 10:54:23;;;;;;;411.10;285.60;;;;;;;25.09;48.77;98556.44;5036541;28;20184;-58
2021/09/11 10:56:51;;;;;;;412.13;288.03;;;;;;;25.05;48.99;98545.31;5036677;28;20183;-58
2021/09/11 10:59:18;;;;;;;377.93;270.27;;;;;;;25.03;49.25;98541.22;5036246;28;20225;-58
2021/09/11 11:01:57;;;;;;;364.43;255.70;;;;;;;25.04;49.60;98540.19;5036534;28;20209;-58
2021/09/11 11:04:28;;;;;;;383.63;263.97;;;;;;;25.02;49.52;98540.38;5034991;28;20198;-57
2021/09/11 11:06:57;;;;;;;398.57;282.83;;;;;;;25.03;49.37;98538.56;5036050;28;20197;-57
2021/09/11 11:09:24;;;;;;;310.13;218.43;;;;;;;24.99;49.51;98534.63;5036302;28;20202;-57
2021/09/11 11:11:53;;;;;;;385.70;274.00;;;;;;;24.94;49.66;98544.06;5036138;28;20198;-57
2021/09/11 11:14:20;;;;;;;371.70;264.07;;;;;;;24.93;49.55;98547.75;5035797;28;20202;-60
2021/09/11 11:16:52;;;;;;;318.40;222.47;;;;;;;24.91;49.47;98541.81;5035777;28;20198;-57
2021/09/11 11:19:29;;;;;;;362.67;258.73;;;;;;;24.94;49.51;98538.72;5035861;28;20213;-57
2021/09/11 11:22:00;;;;;;;323.70;232.27;;;;;;;24.97;49.64;98540.19;5035601;28;20170;-57
2021/09/11 11:24:32;;;;;;;339.03;231.17;;;;;;;24.97;49.61;98539.34;5036006;28;20184;-57
2021/09/11 11:27:00;;;;;;;371.13;250.67;;;;;;;25.01;49.62;98537.91;5034139;28;20728;-55
2021/09/11 11:29:28;;;;;;;315.53;219.50;;;;;;;25.05;49.74;98526.63;5035240;28;20226;-58
2021/09/11 11:31:56;;;;;;;315.97;213.70;;;;;;;25.04;50.23;98532.19;5035685;28;20197;-57
2021/09/11 11:34:23;;;;;;;293.53;199.57;;;;;;;25.05;50.17;98544.50;5035847;28;20186;-57
2021/09/11 11:36:53;;;;;;;316.13;205.23;;;;;;;25.06;50.44;98536.28;5035299;28;20194;-57
2021/09/11 11:39:33;;;;;;;296.83;206.00;;;;;;;25.02;50.72;98536.91;5035263;28;20216;-57